Погода Ипоранна 2 недели

Гояс, Бразилия

19 - 31 июля
  • 19июля
    Сегодня
    +16°
    +33°
    Ясно и безоблачно
    ВремяПогодаТемператураВлажностьДавлениеВетер, м/сВероятность осадков
    00:00Ясно и безоблачно+19°C46 %716 мм2.0 м/с5 %
    03:00Ясно и безоблачно+17°C52 %715 мм2.3 м/с5 %
    06:00Ясно и безоблачно+16°C58 %716 мм2.2 м/с5 %
    09:00Ясно и безоблачно+22°C42 %718 мм1.9 м/с5 %
    12:00Ясно и безоблачно+29°C27 %719 мм2.9 м/с5 %
    15:00Ясно и безоблачно+32°C24 %717 мм1.5 м/с5 %
    18:00Ясно и безоблачно+28°C30 %717 мм2.0 м/с5 %
    21:00Ясно и безоблачно+24°C36 %717 мм2.7 м/с5 %
  • 20июля
    Суббота
    +16°
    +33°
    Ясно и безоблачно
    ВремяПогодаТемператураВлажностьДавлениеВетер, м/сВероятность осадков
    00:00Ясно и безоблачно+21°C41 %717 мм2.7 м/с5 %
    03:00Ясно и безоблачно+20°C42 %716 мм3.6 м/с5 %
    06:00Ясно и безоблачно+18°C53 %716 мм2.1 м/с5 %
    09:00Ясно и безоблачно+22°C42 %718 мм2.0 м/с5 %
    12:00Ясно и безоблачно+29°C25 %718 мм3.8 м/с5 %
    15:00Ясно и безоблачно+32°C23 %716 мм2.2 м/с5 %
    18:00Ясно и безоблачно+28°C30 %715 мм2.0 м/с5 %
    21:00Ясно и безоблачно+23°C36 %715 мм1.5 м/с5 %
  • 21июля
    Воскресенье
    +16°
    +33°
    Ясно и безоблачно
    ВремяПогодаТемператураВлажностьДавлениеВетер, м/сВероятность осадков
    00:00Ясно и безоблачно+19°C42 %715 мм2.3 м/с5 %
    03:00Ясно и безоблачно+18°C46 %714 мм2.7 м/с5 %
    06:00Ясно и безоблачно+16°C55 %714 мм2.1 м/с5 %
    09:00Ясно и безоблачно+23°C40 %717 мм2.2 м/с5 %
    12:00Ясно и безоблачно+29°C28 %717 мм3.0 м/с5 %
    15:00Ясно и безоблачно+32°C24 %715 мм1.5 м/с5 %
    18:00Ясно и безоблачно+28°C34 %715 мм1.4 м/с5 %
    21:00Ясно и безоблачно+23°C40 %715 мм2.0 м/с5 %
  • 22июля
    Понедельник
    +16°
    +33°
    Ясно и безоблачно
    ВремяПогодаТемператураВлажностьДавлениеВетер, м/сВероятность осадков
    00:00Ясно и безоблачно+20°C44 %715 мм2.1 м/с5 %
    03:00Ясно и безоблачно+17°C51 %715 мм2.2 м/с5 %
    06:00Ясно и безоблачно+17°C54 %715 мм2.2 м/с5 %
    09:00Ясно и безоблачно+22°C41 %718 мм2.2 м/с5 %
    12:00Ясно и безоблачно+30°C28 %718 мм2.8 м/с5 %
    15:00Ясно и безоблачно+32°C23 %716 мм1.9 м/с5 %
    18:00Ясно и безоблачно+30°C25 %716 мм1.2 м/с5 %
    21:00Ясно и безоблачно+23°C36 %716 мм2.5 м/с5 %
Мы используем cookies
Соглашаюсь